createdAt,value
2023-04-18T00:01:38.334Z,97144.69
2023-04-18T00:04:05.609Z,97139.50
2023-04-18T00:06:32.673Z,97149.81
2023-04-18T00:08:59.146Z,97141.34
2023-04-18T00:11:25.632Z,97135.31
2023-04-18T00:13:52.099Z,97134.41
2023-04-18T00:16:19.069Z,97137.06
2023-04-18T00:18:45.583Z,97137.00
2023-04-18T00:21:13.381Z,97132.84
2023-04-18T00:23:39.901Z,97131.16
2023-04-18T00:26:06.356Z,97127.69
2023-04-18T00:28:32.874Z,97126.78
2023-04-18T00:30:59.657Z,97138.63
2023-04-18T00:33:26.260Z,97143.78
2023-04-18T00:35:53.738Z,97130.13
2023-04-18T00:38:20.121Z,97131.88
2023-04-18T00:40:46.608Z,97131.88
2023-04-18T00:43:13.993Z,97142.06
2023-04-18T00:45:40.722Z,97128.41
2023-04-18T00:48:07.543Z,97125.72
2023-04-18T00:50:34.074Z,97130.03
2023-04-18T00:53:00.802Z,97134.41
2023-04-18T00:55:27.305Z,97140.22
2023-04-18T00:57:53.740Z,97139.41
2023-04-18T01:00:20.188Z,97132.56
2023-04-18T01:02:47.844Z,97141.13
2023-04-18T01:05:14.696Z,97135.06
2023-04-18T01:07:41.555Z,97139.34
2023-04-18T01:10:10.300Z,97129.06
2023-04-18T01:12:37.707Z,97131.59
2023-04-18T01:15:08.076Z,97130.81
2023-04-18T01:17:35.546Z,97132.50
2023-04-18T01:20:04.895Z,97131.66
2023-04-18T01:22:32.347Z,97132.47
2023-04-18T01:24:58.997Z,97135.81
2023-04-18T01:27:25.538Z,97125.56
2023-04-18T01:29:52.080Z,97128.97
2023-04-18T01:32:20.453Z,97126.38
2023-04-18T01:34:47.239Z,97133.13
2023-04-18T01:37:13.746Z,97130.56
2023-04-18T01:39:40.190Z,97133.94
2023-04-18T01:42:06.736Z,97139.00
2023-04-18T01:44:33.122Z,97138.91
2023-04-18T01:46:59.629Z,97125.25
2023-04-18T01:49:26.227Z,97130.41
2023-04-18T01:51:52.725Z,97140.63
2023-04-18T01:54:19.253Z,97134.56
2023-04-18T01:56:45.774Z,97125.13
2023-04-18T01:59:12.160Z,97135.31
2023-04-18T02:01:38.586Z,97120.00
2023-04-18T02:04:05.272Z,97122.59
2023-04-18T02:06:31.832Z,97127.63
2023-04-18T02:08:58.389Z,97134.38
2023-04-18T02:11:25.041Z,97130.09
2023-04-18T02:13:52.306Z,97136.03
2023-04-18T02:16:18.865Z,97130.91
2023-04-18T02:18:45.336Z,97135.09
2023-04-18T02:21:11.855Z,97134.16
2023-04-18T02:23:38.359Z,97138.44
2023-04-18T02:26:04.836Z,97132.47
2023-04-18T02:28:31.312Z,97140.06
2023-04-18T02:30:59.798Z,97128.09
2023-04-18T02:33:26.288Z,97133.97
2023-04-18T02:35:52.668Z,97136.59
2023-04-18T02:38:19.145Z,97133.00
2023-04-18T02:40:45.660Z,97122.66
2023-04-18T02:43:12.108Z,97130.28
2023-04-18T02:45:38.588Z,97125.09
2023-04-18T02:48:05.345Z,97128.44
2023-04-18T02:50:32.124Z,97129.19
2023-04-18T02:52:58.620Z,97125.78
2023-04-18T02:55:26.868Z,97124.78
2023-04-18T02:57:53.343Z,97123.97
2023-04-18T03:00:19.867Z,97133.22
2023-04-18T03:02:46.446Z,97128.03
2023-04-18T03:05:13.231Z,97128.75
2023-04-18T03:07:39.689Z,97129.63
2023-04-18T03:10:06.594Z,97127.81
2023-04-18T03:12:33.053Z,97131.13
2023-04-18T03:14:59.435Z,97136.16
2023-04-18T03:17:25.952Z,97135.34
2023-04-18T03:19:52.576Z,97137.94
2023-04-18T03:22:19.475Z,97134.41
2023-04-18T03:24:45.970Z,97137.69
2023-04-18T03:27:12.864Z,97135.09
2023-04-18T03:29:39.293Z,97128.16
2023-04-18T03:32:05.739Z,97134.03
2023-04-18T03:34:32.143Z,97128.91
2023-04-18T03:36:58.643Z,97134.09
2023-04-18T03:39:25.168Z,97124.69
2023-04-18T03:41:52.566Z,97133.97
2023-04-18T03:44:19.054Z,97138.31
2023-04-18T03:46:45.768Z,97140.00
2023-04-18T03:49:12.246Z,97139.44
2023-04-18T03:51:49.807Z,97142.09
2023-04-18T03:54:17.052Z,97133.66
2023-04-18T03:56:44.199Z,97134.41
2023-04-18T03:59:11.433Z,97131.75
2023-04-18T04:01:38.052Z,97130.00
2023-04-18T04:04:05.992Z,97136.72
2023-04-18T04:06:32.874Z,97148.41
2023-04-18T04:08:59.313Z,97144.06
2023-04-18T04:11:26.023Z,97146.63
2023-04-18T04:13:52.870Z,97149.09
2023-04-18T04:16:19.454Z,97148.19
2023-04-18T04:18:45.935Z,97143.19
2023-04-18T04:21:12.477Z,97143.19
2023-04-18T04:23:38.993Z,97146.63
2023-04-18T04:26:05.490Z,97145.00
2023-04-18T04:28:31.909Z,97144.16
2023-04-18T04:30:59.222Z,97139.06
2023-04-18T04:33:28.554Z,97148.41
2023-04-18T04:35:55.605Z,97149.34
2023-04-18T04:38:24.975Z,97153.56
2023-04-18T04:40:52.788Z,97152.63
2023-04-18T04:43:20.474Z,97158.66
2023-04-18T04:45:51.488Z,97160.50
2023-04-18T04:48:19.801Z,97148.47
2023-04-18T04:50:58.274Z,97162.44
2023-04-18T04:53:26.557Z,97165.16
2023-04-18T04:55:52.984Z,97160.25
2023-04-18T04:58:19.954Z,97163.81
2023-04-18T05:00:46.466Z,97162.19
2023-04-18T05:03:13.034Z,97168.25
2023-04-18T05:05:39.677Z,97165.78
2023-04-18T05:08:06.209Z,97169.31
2023-04-18T05:10:33.063Z,97167.75
2023-04-18T05:12:59.493Z,97172.16
2023-04-18T05:15:26.104Z,97164.69
2023-04-18T05:17:52.539Z,97170.81
2023-04-18T05:20:19.024Z,97168.47
2023-04-18T05:22:45.529Z,97172.97
2023-04-18T05:25:12.466Z,97174.81
2023-04-18T05:27:39.642Z,97180.00
2023-04-18T05:30:06.917Z,97179.31
2023-04-18T05:32:33.465Z,97165.78
2023-04-18T05:35:00.149Z,97173.59
2023-04-18T05:37:26.558Z,97163.50
2023-04-18T05:39:52.958Z,97165.25
2023-04-18T05:42:19.434Z,97167.84
2023-04-18T05:44:45.794Z,97169.56
2023-04-18T05:47:12.307Z,97168.03
2023-04-18T05:49:38.823Z,97175.72
2023-04-18T05:52:05.668Z,97162.16
2023-04-18T05:54:32.141Z,97168.25
2023-04-18T05:57:00.900Z,97165.88
2023-04-18T05:59:28.672Z,97167.53
2023-04-18T06:01:55.217Z,97172.78
2023-04-18T06:04:22.054Z,97172.88
2023-04-18T06:06:48.730Z,97180.69
2023-04-18T06:09:15.170Z,97189.59
2023-04-18T06:11:41.682Z,97189.09
2023-04-18T06:14:08.120Z,97182.59
2023-04-18T06:16:37.125Z,97191.78
2023-04-18T06:19:05.247Z,97188.34
2023-04-18T06:21:32.014Z,97194.38
2023-04-18T06:23:58.522Z,97190.03
2023-04-18T06:26:25.064Z,97195.84
2023-04-18T06:28:51.498Z,97205.88
2023-04-18T06:31:18.148Z,97205.97
2023-04-18T06:33:44.577Z,97191.50
2023-04-18T06:36:11.132Z,97201.69
2023-04-18T06:38:37.569Z,97207.75
2023-04-18T06:41:04.202Z,97212.88
2023-04-18T06:43:31.050Z,97211.22
2023-04-18T06:45:57.659Z,97217.28
2023-04-18T06:48:24.247Z,97224.94
2023-04-18T06:50:50.803Z,97224.06
2023-04-18T06:53:17.348Z,97225.75
2023-04-18T06:55:43.918Z,97218.94
2023-04-18T06:58:10.328Z,97218.94
2023-04-18T07:00:36.754Z,97218.91
2023-04-18T07:03:11.317Z,97216.22
2023-04-18T07:05:41.700Z,97218.88
2023-04-18T07:08:08.443Z,97214.69
2023-04-18T07:10:34.893Z,97217.13
2023-04-18T07:13:01.346Z,97218.16
2023-04-18T07:15:27.886Z,97225.03
2023-04-18T07:17:54.509Z,97218.25
2023-04-18T07:20:21.169Z,97224.28
2023-04-18T07:22:48.755Z,97229.44
2023-04-18T07:25:16.312Z,97229.38
2023-04-18T07:27:42.720Z,97232.78
2023-04-18T07:30:09.675Z,97235.28
2023-04-18T07:32:36.296Z,97231.00
2023-04-18T07:35:03.377Z,97229.38
2023-04-18T07:37:29.879Z,97230.22
2023-04-18T07:39:56.424Z,97230.22
2023-04-18T07:42:22.924Z,97236.19
2023-04-18T07:44:49.714Z,97237.91
2023-04-18T07:47:16.428Z,97221.72
2023-04-18T07:49:42.816Z,97228.66
2023-04-18T07:52:09.292Z,97233.03
2023-04-18T07:54:35.800Z,97226.25
2023-04-18T07:57:02.325Z,97228.91
2023-04-18T07:59:29.748Z,97234.91
2023-04-18T08:01:56.319Z,97237.63
2023-04-18T08:04:23.177Z,97232.59
2023-04-18T08:06:49.734Z,97242.03
2023-04-18T08:09:16.326Z,97244.69
2023-04-18T08:11:43.153Z,97241.34
2023-04-18T08:14:09.617Z,97239.69
2023-04-18T08:16:36.986Z,97241.53
2023-04-18T08:19:04.940Z,97240.78
2023-04-18T08:21:32.151Z,97237.50
2023-04-18T08:23:59.079Z,97238.41
2023-04-18T08:26:25.851Z,97234.16
2023-04-18T08:28:52.480Z,97245.97
2023-04-18T08:31:19.077Z,97236.69
2023-04-18T08:33:45.631Z,97242.69
2023-04-18T08:36:12.159Z,97245.19
2023-04-18T08:38:38.887Z,97251.22
2023-04-18T08:41:05.562Z,97246.16
2023-04-18T08:43:32.306Z,97248.66
2023-04-18T08:46:00.199Z,97255.63
2023-04-18T08:48:30.535Z,97252.22
2023-04-18T08:51:01.544Z,97259.97
2023-04-18T08:53:28.101Z,97247.09
2023-04-18T08:55:56.315Z,97261.75
2023-04-18T08:58:23.278Z,97263.38
2023-04-18T09:00:51.555Z,97264.28
2023-04-18T09:03:35.152Z,97264.34
2023-04-18T09:06:18.824Z,97262.66
2023-04-18T09:08:58.755Z,97265.28
2023-04-18T09:11:28.581Z,97273.81
2023-04-18T09:13:59.388Z,97273.91
2023-04-18T09:16:27.525Z,97268.84
2023-04-18T09:19:12.861Z,97272.34
2023-04-18T09:21:41.950Z,97269.81
2023-04-18T09:24:22.678Z,97266.50
2023-04-18T09:26:51.259Z,97266.53
2023-04-18T09:29:18.623Z,97270.91
2023-04-18T09:31:57.432Z,97271.91
2023-04-18T09:34:27.604Z,97263.47
2023-04-18T09:37:11.330Z,97257.56
2023-04-18T09:39:42.743Z,97263.59
2023-04-18T09:42:10.889Z,97264.53
2023-04-18T09:44:38.574Z,97263.72
2023-04-18T09:47:07.788Z,97274.00
2023-04-18T09:49:34.607Z,97269.75
2023-04-18T09:52:06.439Z,97271.56
2023-04-18T09:54:37.479Z,97267.28
2023-04-18T09:57:09.107Z,97269.88
2023-04-18T09:59:47.667Z,97272.38
2023-04-18T10:02:22.567Z,97267.28
2023-04-18T10:04:53.732Z,97270.75
2023-04-18T10:07:20.828Z,97271.66
2023-04-18T10:09:48.983Z,97269.88
2023-04-18T10:12:17.363Z,97267.38
2023-04-18T10:14:44.364Z,97269.97
2023-04-18T10:17:11.721Z,97272.56
2023-04-18T10:19:41.961Z,97258.88
2023-04-18T10:22:08.454Z,97265.72
2023-04-18T10:24:53.311Z,97257.31
2023-04-18T10:27:48.984Z,97264.09
2023-04-18T10:30:16.767Z,97265.91
2023-04-18T10:32:43.560Z,97263.53
2023-04-18T10:35:11.188Z,97254.34
2023-04-18T10:37:51.128Z,97257.88
2023-04-18T10:40:32.435Z,97251.94
2023-04-18T10:42:59.167Z,97253.63
2023-04-18T10:45:28.848Z,97259.69
2023-04-18T10:48:30.134Z,97252.16
2023-04-18T10:51:19.319Z,97250.56
2023-04-18T10:53:52.432Z,97247.22
2023-04-18T10:56:19.316Z,97244.75
2023-04-18T10:58:59.237Z,97251.75
2023-04-18T11:01:31.651Z,97244.22
2023-04-18T11:03:59.573Z,97247.66
2023-04-18T11:06:30.270Z,97240.88
2023-04-18T11:09:13.728Z,97235.00
2023-04-18T11:11:41.940Z,97242.78
2023-04-18T11:14:08.502Z,97242.25
2023-04-18T11:16:35.181Z,97229.03
2023-04-18T11:19:18.977Z,97229.66
2023-04-18T11:21:45.509Z,97225.72
2023-04-18T11:24:12.287Z,97218.00
2023-04-18T11:26:39.216Z,97220.75
2023-04-18T11:29:06.358Z,97215.75
2023-04-18T11:31:32.793Z,97212.97
2023-04-18T11:33:59.237Z,97212.03
2023-04-18T11:36:26.500Z,97213.84
2023-04-18T11:38:53.053Z,97208.78
2023-04-18T11:41:19.555Z,97207.97
2023-04-18T11:43:46.622Z,97210.69
2023-04-18T11:46:13.593Z,97208.84
2023-04-18T11:48:42.226Z,97209.81
2023-04-18T11:51:31.922Z,97214.97
2023-04-18T11:53:58.363Z,97214.06
2023-04-18T11:56:25.041Z,97212.41
2023-04-18T11:58:51.596Z,97209.81
2023-04-18T12:01:25.724Z,97206.31
2023-04-18T12:04:07.497Z,97216.69
2023-04-18T12:06:50.282Z,97201.28
2023-04-18T12:09:17.434Z,97206.47
2023-04-18T12:11:44.327Z,97203.09
2023-04-18T12:14:21.567Z,97206.31
2023-04-18T12:16:52.015Z,97208.91
2023-04-18T12:19:20.779Z,97210.59
2023-04-18T12:22:02.046Z,97212.34
2023-04-18T12:24:28.915Z,97208.75
2023-04-18T12:26:57.838Z,97216.41
2023-04-18T12:29:25.559Z,97204.63
2023-04-18T12:31:52.149Z,97200.31
2023-04-18T12:34:18.860Z,97207.81
2023-04-18T12:36:45.908Z,97205.50
2023-04-18T12:39:12.650Z,97198.03
2023-04-18T12:41:39.099Z,97196.50
2023-04-18T12:44:06.713Z,97201.63
2023-04-18T12:46:33.355Z,97193.09
2023-04-18T12:49:00.273Z,97193.09
2023-04-18T12:51:27.952Z,97193.09
2023-04-18T12:53:54.430Z,97193.94
2023-04-18T12:56:21.419Z,97191.38
2023-04-18T12:58:47.938Z,97194.81
2023-04-18T13:01:14.531Z,97196.56
2023-04-18T13:03:41.521Z,97198.25
2023-04-18T13:06:09.363Z,97188.78
2023-04-18T13:08:37.504Z,97195.69
2023-04-18T13:11:04.147Z,97189.69
2023-04-18T13:13:30.667Z,97187.06
2023-04-18T13:15:57.217Z,97185.38
2023-04-18T13:18:23.714Z,97196.56
2023-04-18T13:20:50.296Z,97195.66
2023-04-18T13:23:16.770Z,97196.53
2023-04-18T13:25:43.305Z,97189.69
2023-04-18T13:28:09.684Z,97183.69
2023-04-18T13:30:36.102Z,97190.47
2023-04-18T13:33:02.569Z,97192.97
2023-04-18T13:35:29.180Z,97193.06
2023-04-18T13:37:55.931Z,97191.38
2023-04-18T13:40:22.523Z,97186.22
2023-04-18T13:42:49.124Z,97187.09
2023-04-18T13:45:15.838Z,97189.63
2023-04-18T13:47:42.395Z,97193.94
2023-04-18T13:50:09.447Z,97191.31
2023-04-18T13:52:36.286Z,97193.78
2023-04-18T13:55:02.828Z,97195.53
2023-04-18T13:57:31.946Z,97192.94
2023-04-18T13:59:58.422Z,97187.72
2023-04-18T14:02:24.946Z,97192.91
2023-04-18T14:04:52.360Z,97201.47
2023-04-18T14:07:18.986Z,97197.28
2023-04-18T14:09:48.164Z,97194.69
2023-04-18T14:12:14.671Z,97192.84
2023-04-18T14:14:41.762Z,97202.22
2023-04-18T14:17:08.254Z,97202.19
2023-04-18T14:19:35.005Z,97211.53
2023-04-18T14:22:01.422Z,97209.78
2023-04-18T14:24:27.926Z,97225.03
2023-04-18T14:26:54.741Z,97215.59
2023-04-18T14:29:21.159Z,97228.41
2023-04-18T14:31:50.594Z,97215.47
2023-04-18T14:34:17.110Z,97217.09
2023-04-18T14:36:43.568Z,97223.00
2023-04-18T14:39:10.260Z,97217.81
2023-04-18T14:41:36.789Z,97211.03
2023-04-18T14:44:04.158Z,97223.06
2023-04-18T14:46:30.700Z,97220.50
2023-04-18T14:48:58.251Z,97208.53
2023-04-18T14:51:24.789Z,97219.63
2023-04-18T14:53:51.399Z,97215.97
2023-04-18T14:56:20.895Z,97218.41
2023-04-18T14:58:47.550Z,97213.16
2023-04-18T15:01:14.035Z,97220.00
2023-04-18T15:03:40.900Z,97219.91
2023-04-18T15:06:07.750Z,97219.84
2023-04-18T15:08:34.348Z,97212.81
2023-04-18T15:11:01.362Z,97214.53
2023-04-18T15:13:27.910Z,97217.97
2023-04-18T15:15:56.436Z,97223.13
2023-04-18T15:18:23.067Z,97228.28
2023-04-18T15:20:49.990Z,97226.56
2023-04-18T15:23:16.581Z,97220.56
2023-04-18T15:25:44.712Z,97231.78
2023-04-18T15:28:13.125Z,97232.56
2023-04-18T15:30:39.709Z,97229.13
2023-04-18T15:33:07.526Z,97222.06
2023-04-18T15:35:33.999Z,97228.94
2023-04-18T15:38:00.539Z,97227.97
2023-04-18T15:40:27.064Z,97223.69
2023-04-18T15:42:54.328Z,97231.28
2023-04-18T15:45:21.192Z,97229.44
2023-04-18T15:47:47.837Z,97238.84
2023-04-18T15:50:15.939Z,97244.84
2023-04-18T15:52:42.453Z,97241.38
2023-04-18T15:55:11.041Z,97243.88
2023-04-18T15:57:37.792Z,97248.94
2023-04-18T16:00:10.175Z,97238.63
2023-04-18T16:02:37.021Z,97251.41
2023-04-18T16:05:04.521Z,97255.66
2023-04-18T16:07:31.191Z,97252.19
2023-04-18T16:09:57.850Z,97256.44
2023-04-18T16:12:24.621Z,97254.81
2023-04-18T16:14:51.327Z,97252.28
2023-04-18T16:17:17.881Z,97258.31
2023-04-18T16:19:44.405Z,97260.94
2023-04-18T16:22:12.112Z,97257.56
2023-04-18T16:24:39.919Z,97258.28
2023-04-18T16:27:08.014Z,97254.13
2023-04-18T16:29:35.196Z,97259.13
2023-04-18T16:32:02.767Z,97265.00
2023-04-18T16:34:29.200Z,97260.78
2023-04-18T16:36:55.813Z,97262.50
2023-04-18T16:39:22.597Z,97265.88
2023-04-18T16:41:49.267Z,97272.69
2023-04-18T16:44:16.118Z,97267.53
2023-04-18T16:46:42.832Z,97269.16
2023-04-18T16:49:09.276Z,97268.31
2023-04-18T16:51:37.097Z,97265.75
2023-04-18T16:54:04.325Z,97268.34
2023-04-18T16:56:30.759Z,97262.28
2023-04-18T16:58:58.068Z,97267.38
2023-04-18T17:01:24.532Z,97270.78
2023-04-18T17:03:51.323Z,97274.19
2023-04-18T17:06:19.286Z,97276.66
2023-04-18T17:08:49.527Z,97280.91
2023-04-18T17:11:19.825Z,97283.50
2023-04-18T17:13:47.865Z,97281.75
2023-04-18T17:16:14.589Z,97279.19
2023-04-18T17:18:41.772Z,97279.13
2023-04-18T17:21:12.335Z,97289.31
2023-04-18T17:23:41.442Z,97282.41
2023-04-18T17:26:09.061Z,97285.69
2023-04-18T17:28:36.364Z,97276.31
2023-04-18T17:31:03.891Z,97284.00
2023-04-18T17:33:31.163Z,97286.44
2023-04-18T17:35:58.175Z,97293.25
2023-04-18T17:38:24.765Z,97290.63
2023-04-18T17:41:01.144Z,97289.78
2023-04-18T17:43:28.194Z,97297.47
2023-04-18T17:45:55.953Z,97290.53
2023-04-18T17:48:22.612Z,97291.34
2023-04-18T17:50:49.146Z,97300.75
2023-04-18T17:53:15.810Z,97299.06
2023-04-18T17:55:42.369Z,97294.78
2023-04-18T17:58:09.220Z,97305.88
2023-04-18T18:00:35.924Z,97310.13
2023-04-18T18:03:03.560Z,97311.00
2023-04-18T18:05:30.707Z,97298.97
2023-04-18T18:07:57.621Z,97306.44
2023-04-18T18:10:24.924Z,97298.69
2023-04-18T18:12:51.502Z,97312.38
2023-04-18T18:15:18.362Z,97304.69
2023-04-18T18:17:45.016Z,97318.34
2023-04-18T18:20:11.829Z,97314.06
2023-04-18T18:22:38.280Z,97317.34
2023-04-18T18:25:05.449Z,97324.16
2023-04-18T18:27:31.920Z,97325.81
2023-04-18T18:29:58.530Z,97324.94
2023-04-18T18:32:26.736Z,97323.13
2023-04-18T18:34:53.341Z,97326.47
2023-04-18T18:37:19.895Z,97326.31
2023-04-18T18:39:46.346Z,97341.66
2023-04-18T18:42:12.878Z,97344.22
2023-04-18T18:44:39.305Z,97342.56
2023-04-18T18:47:06.097Z,97341.66
2023-04-18T18:49:32.798Z,97345.88
2023-04-18T18:51:59.340Z,97352.72
2023-04-18T18:54:25.984Z,97344.22
2023-04-18T18:56:52.624Z,97352.66
2023-04-18T18:59:19.166Z,97349.25
2023-04-18T19:01:45.751Z,97343.22
2023-04-18T19:04:12.574Z,97349.25
2023-04-18T19:06:39.318Z,97350.97
2023-04-18T19:09:06.078Z,97349.16
2023-04-18T19:11:32.610Z,97356.88
2023-04-18T19:13:59.119Z,97350.06
2023-04-18T19:16:25.998Z,97366.28
2023-04-18T19:18:52.455Z,97361.19
2023-04-18T19:21:20.141Z,97359.44
2023-04-18T19:23:47.061Z,97365.41
2023-04-18T19:26:13.783Z,97359.34
2023-04-18T19:28:40.291Z,97369.56
2023-04-18T19:31:06.908Z,97365.22
2023-04-18T19:33:33.432Z,97367.81
2023-04-18T19:36:05.805Z,97362.63
2023-04-18T19:38:36.742Z,97374.53
2023-04-18T19:41:03.339Z,97367.66
2023-04-18T19:43:29.925Z,97362.50
2023-04-18T19:45:56.543Z,97353.84
2023-04-18T19:48:23.127Z,97361.63
2023-04-18T19:50:50.082Z,97365.78
2023-04-18T19:53:18.832Z,97368.44
2023-04-18T19:55:45.455Z,97366.66
2023-04-18T19:58:11.942Z,97357.25
2023-04-18T20:00:39.420Z,97367.44
2023-04-18T20:03:06.080Z,97362.38
2023-04-18T20:05:32.757Z,97363.22
2023-04-18T20:07:59.209Z,97363.19
2023-04-18T20:10:25.779Z,97362.22
2023-04-18T20:12:52.187Z,97365.63
2023-04-18T20:15:18.882Z,97365.66
2023-04-18T20:17:45.503Z,97357.09
2023-04-18T20:20:12.444Z,97360.53
2023-04-18T20:22:40.244Z,97357.91
2023-04-18T20:25:07.075Z,97361.31
2023-04-18T20:27:33.624Z,97363.88
2023-04-18T20:30:00.183Z,97362.97
2023-04-18T20:32:26.895Z,97355.25
2023-04-18T20:34:53.503Z,97363.84
2023-04-18T20:37:20.449Z,97363.75
2023-04-18T20:39:47.782Z,97357.78
2023-04-18T20:42:14.331Z,97356.09
2023-04-18T20:44:43.225Z,97359.53
2023-04-18T20:47:09.753Z,97360.41
2023-04-18T20:49:36.289Z,97370.59
2023-04-18T20:52:02.894Z,97356.91
2023-04-18T20:54:29.465Z,97361.16
2023-04-18T20:56:56.052Z,97361.16
2023-04-18T20:59:22.579Z,97362.00
2023-04-18T21:01:49.059Z,97356.84
2023-04-18T21:04:15.806Z,97353.41
2023-04-18T21:06:42.733Z,97352.53
2023-04-18T21:09:09.233Z,97361.91
2023-04-18T21:11:35.596Z,97358.53
2023-04-18T21:14:03.649Z,97357.63
2023-04-18T21:16:30.140Z,97349.88
2023-04-18T21:18:56.692Z,97351.63
2023-04-18T21:21:23.265Z,97349.88
2023-04-18T21:23:49.880Z,97358.41
2023-04-18T21:26:16.382Z,97357.50
2023-04-18T21:29:00.205Z,97357.50
2023-04-18T21:31:29.306Z,97348.88
2023-04-18T21:33:57.309Z,97362.59
2023-04-18T21:36:26.876Z,97368.53
2023-04-18T21:38:57.375Z,97355.72
2023-04-18T21:41:24.386Z,97360.88
2023-04-18T21:43:51.722Z,97362.59
2023-04-18T21:46:18.859Z,97353.13
2023-04-18T21:48:47.101Z,97355.75
2023-04-18T21:51:15.585Z,97356.53
2023-04-18T21:53:42.796Z,97346.31
2023-04-18T21:56:09.737Z,97356.59
2023-04-18T21:58:36.327Z,97357.34
2023-04-18T22:01:03.328Z,97354.81
2023-04-18T22:03:30.192Z,97352.19
2023-04-18T22:05:57.579Z,97349.66
2023-04-18T22:08:25.765Z,97347.88
2023-04-18T22:10:58.104Z,97353.94
2023-04-18T22:13:30.020Z,97347.91
2023-04-18T22:15:58.187Z,97349.66
2023-04-18T22:18:25.229Z,97342.81
2023-04-18T22:20:53.593Z,97339.38
2023-04-18T22:23:20.635Z,97333.41
2023-04-18T22:25:47.470Z,97346.19
2023-04-18T22:28:13.936Z,97341.94
2023-04-18T22:30:40.519Z,97334.22
2023-04-18T22:33:07.133Z,97336.75
2023-04-18T22:35:33.644Z,97347.00
2023-04-18T22:38:00.129Z,97335.88
2023-04-18T22:40:26.953Z,97340.13
2023-04-18T22:42:54.108Z,97334.16
2023-04-18T22:45:20.796Z,97316.91
2023-04-18T22:47:47.296Z,97326.34
2023-04-18T22:50:14.651Z,97338.34
2023-04-18T22:52:41.515Z,97335.78
2023-04-18T22:55:11.464Z,97337.47
2023-04-18T22:57:39.206Z,97336.66
2023-04-18T23:00:06.983Z,97329.91
2023-04-18T23:02:33.531Z,97328.16
2023-04-18T23:05:02.295Z,97328.97
2023-04-18T23:07:28.889Z,97326.38
2023-04-18T23:09:55.432Z,97325.50
2023-04-18T23:12:22.266Z,97323.69
2023-04-18T23:14:48.774Z,97321.97
2023-04-18T23:17:15.320Z,97331.34
2023-04-18T23:19:41.885Z,97325.38
2023-04-18T23:22:08.225Z,97321.09
2023-04-18T23:24:34.730Z,97318.50
2023-04-18T23:27:01.554Z,97328.75
2023-04-18T23:29:28.217Z,97322.78
2023-04-18T23:31:54.628Z,97315.88
2023-04-18T23:34:21.108Z,97320.13
2023-04-18T23:36:47.581Z,97314.06
2023-04-18T23:39:13.990Z,97319.88
2023-04-18T23:41:40.840Z,97314.63
2023-04-18T23:44:07.243Z,97316.22
2023-04-18T23:46:36.230Z,97321.28
2023-04-18T23:49:03.194Z,97319.47
2023-04-18T23:51:29.681Z,97312.59
2023-04-18T23:53:56.214Z,97315.09
2023-04-18T23:56:23.162Z,97310.91
2023-04-18T23:58:50.369Z,97312.56
